createdAt,value
2019-02-26T00:01:18.498Z,947.70
2019-02-26T00:03:48.330Z,915.07
2019-02-26T00:06:20.736Z,939.97
2019-02-26T00:08:54.127Z,920.10
2019-02-26T00:11:26.724Z,901.40
2019-02-26T00:13:59.024Z,920.63
2019-02-26T00:16:35.377Z,909.00
2019-02-26T00:19:09.645Z,933.47
2019-02-26T00:21:40.386Z,928.93
2019-02-26T00:24:12.936Z,926.97
2019-02-26T00:26:45.145Z,920.80
2019-02-26T00:29:16.335Z,915.10
2019-02-26T00:31:49.005Z,922.37
2019-02-26T00:34:20.331Z,922.77
2019-02-26T00:36:51.504Z,915.77
2019-02-26T00:39:23.382Z,905.17
2019-02-26T00:41:55.748Z,918.40
2019-02-26T00:44:29.881Z,906.50
2019-02-26T00:47:02.575Z,887.80
2019-02-26T00:49:33.758Z,892.47
2019-02-26T00:52:06.394Z,930.07
2019-02-26T00:54:39.149Z,936.13
2019-02-26T00:57:11.535Z,891.27
2019-02-26T00:59:45.928Z,894.27
2019-02-26T01:02:17.125Z,920.00
2019-02-26T01:04:49.247Z,919.97
2019-02-26T01:07:21.460Z,913.77
2019-02-26T01:09:56.895Z,919.37
2019-02-26T01:12:28.323Z,900.17
2019-02-26T01:15:02.591Z,907.20
2019-02-26T01:17:35.651Z,908.40
2019-02-26T01:20:09.394Z,897.13
2019-02-26T01:22:42.896Z,900.53
2019-02-26T01:25:15.863Z,915.07
2019-02-26T01:27:51.067Z,908.53
2019-02-26T01:30:25.833Z,877.50
2019-02-26T01:32:57.573Z,908.07
2019-02-26T01:35:28.975Z,882.27
2019-02-26T01:38:00.718Z,897.20
2019-02-26T01:40:31.838Z,892.93
2019-02-26T01:43:05.530Z,927.23
2019-02-26T01:45:37.714Z,912.27
2019-02-26T01:48:11.193Z,910.33
2019-02-26T01:50:41.797Z,568.67
2019-02-26T01:53:14.517Z,623.80
2019-02-26T01:55:48.306Z,637.17
2019-02-26T01:58:19.634Z,653.20
2019-02-26T02:00:50.732Z,670.37
2019-02-26T02:03:23.007Z,720.83
2019-02-26T02:05:54.915Z,695.03
2019-02-26T02:08:26.195Z,676.73
2019-02-26T02:10:59.835Z,696.47
2019-02-26T02:13:30.665Z,688.20
2019-02-26T02:16:04.542Z,695.93
2019-02-26T02:18:35.721Z,707.93
2019-02-26T02:21:07.218Z,693.23
2019-02-26T02:23:38.302Z,717.27
2019-02-26T02:26:11.606Z,728.97
2019-02-26T02:28:43.020Z,681.13
2019-02-26T02:31:14.144Z,726.80
2019-02-26T02:33:45.233Z,719.20
2019-02-26T02:36:17.618Z,714.53
2019-02-26T02:38:50.397Z,709.03
2019-02-26T02:41:21.508Z,715.13
2019-02-26T02:43:52.929Z,722.03
2019-02-26T02:46:24.054Z,713.10
2019-02-26T02:48:56.098Z,697.83
2019-02-26T02:51:28.154Z,736.40
2019-02-26T02:54:01.000Z,712.40
2019-02-26T02:56:33.379Z,722.07
2019-02-26T02:59:08.905Z,731.20
2019-02-26T03:01:39.805Z,716.57
2019-02-26T03:04:14.768Z,710.30
2019-02-26T03:06:46.345Z,717.63
2019-02-26T03:09:19.667Z,715.77
2019-02-26T03:11:52.981Z,704.57
2019-02-26T03:14:24.995Z,732.63
2019-02-26T03:16:56.244Z,718.93
2019-02-26T03:19:29.483Z,705.23
2019-02-26T03:22:00.424Z,723.43
2019-02-26T03:24:33.852Z,694.30
2019-02-26T03:27:04.345Z,719.23
2019-02-26T03:29:36.496Z,696.23
2019-02-26T03:32:07.612Z,718.50
2019-02-26T03:34:38.798Z,701.53
2019-02-26T03:37:11.167Z,704.83
2019-02-26T03:39:42.408Z,693.40
2019-02-26T03:42:16.186Z,732.67
2019-02-26T03:44:47.034Z,717.73
2019-02-26T03:47:18.867Z,727.07
2019-02-26T03:49:50.426Z,740.57
2019-02-26T03:52:21.610Z,748.13
2019-02-26T03:54:52.786Z,726.40
2019-02-26T03:57:24.821Z,745.63
2019-02-26T03:59:56.265Z,742.73
2019-02-26T04:02:27.454Z,745.93
2019-02-26T04:05:00.759Z,740.90
2019-02-26T04:07:35.848Z,737.27
2019-02-26T04:10:06.627Z,735.90
2019-02-26T04:12:41.826Z,708.90
2019-02-26T04:15:13.528Z,743.43
2019-02-26T04:17:44.629Z,701.17
2019-02-26T04:20:17.229Z,712.00
2019-02-26T04:22:52.401Z,740.80
2019-02-26T04:26:15.910Z,709.50
2019-02-26T04:29:06.488Z,667.63
2019-02-26T04:32:43.601Z,667.03
2019-02-26T04:36:02.512Z,624.83
2019-02-26T04:39:48.828Z,595.53
2019-02-26T04:43:08.283Z,608.50
2019-02-26T04:46:37.384Z,621.50
2019-02-26T04:49:09.360Z,632.50
2019-02-26T04:51:44.489Z,666.43
2019-02-26T04:54:17.524Z,727.77
2019-02-26T04:56:48.038Z,718.33
2019-02-26T04:59:19.947Z,718.30
2019-02-26T05:01:54.909Z,723.03
2019-02-26T05:04:24.075Z,712.00
2019-02-26T05:06:55.684Z,722.13
2019-02-26T05:09:27.943Z,735.07
2019-02-26T05:12:00.170Z,693.00
2019-02-26T05:14:31.824Z,721.80
2019-02-26T05:17:03.388Z,702.90
2019-02-26T05:19:36.560Z,718.40
2019-02-26T05:22:08.472Z,709.47
2019-02-26T05:24:42.395Z,701.97
2019-02-26T05:27:22.692Z,715.60
2019-02-26T05:29:54.707Z,687.57
2019-02-26T05:32:29.430Z,700.23
2019-02-26T05:34:59.536Z,654.47
2019-02-26T05:37:32.592Z,651.53
2019-02-26T05:40:06.536Z,675.50
2019-02-26T05:42:37.678Z,682.37
2019-02-26T05:45:09.616Z,684.47
2019-02-26T05:47:42.988Z,684.90
2019-02-26T05:50:16.727Z,714.23
2019-02-26T05:52:50.397Z,685.10
2019-02-26T05:55:23.689Z,661.00
2019-02-26T05:57:56.276Z,667.60
2019-02-26T06:00:32.339Z,705.40
2019-02-26T06:03:03.066Z,721.10
2019-02-26T06:05:35.931Z,708.40
2019-02-26T06:08:07.820Z,687.97
2019-02-26T06:10:39.468Z,648.60
2019-02-26T06:13:13.545Z,696.30
2019-02-26T06:15:44.221Z,645.53
2019-02-26T06:18:15.867Z,746.97
2019-02-26T06:20:48.547Z,738.77
2019-02-26T06:23:20.456Z,728.63
2019-02-26T06:25:55.174Z,745.60
2019-02-26T06:28:25.761Z,744.90
2019-02-26T06:30:57.502Z,731.47
2019-02-26T06:33:31.685Z,754.47
2019-02-26T06:36:04.138Z,758.63
2019-02-26T06:38:35.035Z,713.13
2019-02-26T06:41:06.895Z,795.50
2019-02-26T06:43:39.950Z,794.67
2019-02-26T06:46:12.323Z,780.20
2019-02-26T06:48:43.750Z,815.03
2019-02-26T06:51:15.107Z,803.73
2019-02-26T06:53:49.214Z,812.90
2019-02-26T06:56:19.185Z,834.53
2019-02-26T06:58:50.424Z,805.37
2019-02-26T07:01:21.626Z,806.63
2019-02-26T07:03:53.864Z,838.20
2019-02-26T07:06:27.308Z,819.30
2019-02-26T07:08:58.473Z,826.77
2019-02-26T07:11:31.461Z,834.07
2019-02-26T07:14:05.439Z,822.33
2019-02-26T07:16:39.790Z,805.30
2019-02-26T07:19:11.547Z,827.93
2019-02-26T07:21:45.388Z,804.33
2019-02-26T07:24:18.073Z,829.47
2019-02-26T07:26:48.731Z,832.97
2019-02-26T07:29:20.105Z,861.57
2019-02-26T07:31:51.895Z,837.43
2019-02-26T07:34:26.841Z,871.90
2019-02-26T07:36:57.874Z,891.33
2019-02-26T07:39:29.105Z,886.20
2019-02-26T07:42:00.249Z,879.40
2019-02-26T07:44:31.409Z,830.73
2019-02-26T07:47:06.158Z,855.70
2019-02-26T07:49:37.063Z,833.43
2019-02-26T07:52:08.876Z,860.57
2019-02-26T07:54:42.219Z,860.83
2019-02-26T07:57:12.869Z,903.30
2019-02-26T07:59:45.140Z,885.63
2019-02-26T08:02:17.593Z,878.87
2019-02-26T08:04:48.770Z,925.57
2019-02-26T08:07:21.406Z,908.67
2019-02-26T08:09:53.222Z,897.73
2019-02-26T08:12:24.364Z,838.90
2019-02-26T08:14:56.072Z,874.70
2019-02-26T08:17:27.180Z,838.80
2019-02-26T08:20:01.625Z,862.63
2019-02-26T08:22:34.558Z,843.33
2019-02-26T08:25:06.487Z,836.93
2019-02-26T08:27:37.925Z,846.70
2019-02-26T08:30:20.176Z,866.63
2019-02-26T08:32:53.564Z,907.80
2019-02-26T08:35:23.479Z,859.23
2019-02-26T08:37:54.624Z,888.43
2019-02-26T08:40:25.819Z,865.23
2019-02-26T08:42:56.933Z,890.67
2019-02-26T08:45:31.865Z,885.53
2019-02-26T08:48:02.940Z,884.17
2019-02-26T08:50:36.169Z,871.63
2019-02-26T08:53:08.664Z,864.23
2019-02-26T08:55:40.934Z,858.40
2019-02-26T08:58:13.086Z,838.80
2019-02-26T09:00:44.289Z,820.27
2019-02-26T09:03:17.737Z,811.80
2019-02-26T09:05:49.422Z,836.80
2019-02-26T09:08:22.178Z,862.57
2019-02-26T09:10:53.896Z,786.77
2019-02-26T09:13:26.777Z,818.23
2019-02-26T09:16:01.062Z,820.43
2019-02-26T09:18:35.524Z,821.87
2019-02-26T09:21:07.087Z,806.50
2019-02-26T09:23:38.397Z,811.17
2019-02-26T09:26:09.585Z,811.37
2019-02-26T09:28:40.721Z,797.00
2019-02-26T09:31:14.198Z,787.77
2019-02-26T09:33:45.719Z,787.17
2019-02-26T09:36:21.018Z,818.10
2019-02-26T09:38:51.803Z,808.10
2019-02-26T09:41:23.875Z,767.27
2019-02-26T09:43:55.109Z,770.00
2019-02-26T09:46:26.939Z,795.33
2019-02-26T09:49:00.935Z,766.07
2019-02-26T09:51:33.080Z,807.80
2019-02-26T09:54:04.659Z,824.00
2019-02-26T09:56:36.118Z,810.03
2019-02-26T09:59:09.657Z,830.87
2019-02-26T10:01:40.874Z,801.50
2019-02-26T10:04:14.214Z,784.97
2019-02-26T10:06:47.532Z,807.47
2019-02-26T10:09:20.713Z,810.83
2019-02-26T10:11:52.769Z,797.30
2019-02-26T10:14:26.959Z,894.60
2019-02-26T10:16:57.693Z,986.93
2019-02-26T10:19:30.956Z,1028.60
2019-02-26T10:22:03.562Z,993.20
2019-02-26T10:24:37.246Z,936.67
2019-02-26T10:27:10.908Z,1096.97
2019-02-26T10:29:42.942Z,940.50
2019-02-26T10:32:14.108Z,933.63
2019-02-26T10:34:45.612Z,983.30
2019-02-26T10:37:17.168Z,1032.37
2019-02-26T10:39:49.755Z,1094.27
2019-02-26T10:42:21.859Z,1085.50
2019-02-26T10:44:53.355Z,1123.53
2019-02-26T10:47:25.496Z,1136.93
2019-02-26T10:49:58.634Z,1087.73
2019-02-26T10:52:30.523Z,1147.43
2019-02-26T10:55:01.983Z,1101.77
2019-02-26T10:57:35.734Z,1106.50
2019-02-26T11:00:12.403Z,1115.70
2019-02-26T11:02:46.020Z,1077.67
2019-02-26T11:05:20.793Z,1137.10
2019-02-26T11:07:52.541Z,1003.70
2019-02-26T11:10:25.242Z,927.97
2019-02-26T11:12:59.420Z,967.37
2019-02-26T11:15:33.919Z,844.40
2019-02-26T11:18:04.638Z,576.73
2019-02-26T11:20:37.207Z,678.10
2019-02-26T11:23:11.136Z,736.40
2019-02-26T11:25:42.087Z,707.97
2019-02-26T11:28:13.300Z,634.90
2019-02-26T11:30:46.504Z,695.57
2019-02-26T11:33:17.425Z,652.63
2019-02-26T11:35:49.471Z,678.50
2019-02-26T11:38:22.324Z,684.77
2019-02-26T11:40:54.566Z,764.37
2019-02-26T11:43:28.924Z,657.20
2019-02-26T11:46:03.927Z,692.60
2019-02-26T11:48:35.487Z,733.33
2019-02-26T11:51:07.511Z,695.13
2019-02-26T11:53:39.659Z,723.33
2019-02-26T11:56:13.038Z,657.93
2019-02-26T11:58:43.967Z,656.87
2019-02-26T12:01:16.657Z,671.87
2019-02-26T12:03:48.149Z,655.80
2019-02-26T12:06:19.463Z,667.30
2019-02-26T12:08:51.112Z,736.07
2019-02-26T12:11:23.258Z,690.97
2019-02-26T12:13:54.830Z,676.83
2019-02-26T12:16:28.433Z,740.40
2019-02-26T12:19:01.316Z,726.83
2019-02-26T12:21:32.764Z,690.57
2019-02-26T12:24:06.628Z,736.50
2019-02-26T12:26:39.292Z,772.40
2019-02-26T12:29:10.511Z,797.83
2019-02-26T12:31:41.617Z,792.70
2019-02-26T12:34:14.605Z,976.87
2019-02-26T12:36:48.164Z,1030.20
2019-02-26T12:39:21.415Z,1104.97
2019-02-26T12:41:52.001Z,1002.00
2019-02-26T12:44:23.536Z,949.30
2019-02-26T12:46:56.832Z,899.33
2019-02-26T12:49:29.400Z,947.70
2019-02-26T12:52:03.339Z,981.70
2019-02-26T12:54:37.798Z,977.33
2019-02-26T12:57:07.468Z,981.87
2019-02-26T12:59:39.143Z,958.50
2019-02-26T13:02:13.933Z,960.80
2019-02-26T13:04:47.252Z,963.17
2019-02-26T13:07:17.132Z,959.23
2019-02-26T13:09:51.965Z,971.40
2019-02-26T13:12:23.910Z,957.80
2019-02-26T13:14:55.686Z,953.77
2019-02-26T13:17:29.458Z,956.60
2019-02-26T13:20:01.910Z,956.37
2019-02-26T13:22:32.662Z,990.33
2019-02-26T13:25:09.661Z,1043.90
2019-02-26T13:27:38.765Z,1000.60
2019-02-26T13:30:14.308Z,919.47
2019-02-26T13:33:04.252Z,851.63
2019-02-26T13:35:18.312Z,561.27
2019-02-26T13:37:51.347Z,667.73
2019-02-26T13:40:23.461Z,623.90
2019-02-26T13:45:28.386Z,541.53
2019-02-26T13:48:01.353Z,474.67
2019-02-26T13:50:32.486Z,404.17
2019-02-26T13:53:03.591Z,58.40
2019-02-26T13:55:36.100Z,58.07
2019-02-26T13:58:11.798Z,31.73
2019-02-26T14:00:40.763Z,64.53
2019-02-26T14:03:13.363Z,33.83
2019-02-26T14:05:46.512Z,30.97
2019-02-26T14:08:18.243Z,31.83
2019-02-26T14:10:49.845Z,30.27
2019-02-26T14:13:21.454Z,30.97
2019-02-26T14:15:54.888Z,34.53
2019-02-26T14:18:26.916Z,36.90
2019-02-26T14:20:59.008Z,35.97
2019-02-26T14:23:34.970Z,42.50
2019-02-26T14:26:04.456Z,53.73
2019-02-26T14:28:35.627Z,46.80
2019-02-26T14:31:07.695Z,35.23
2019-02-26T14:33:39.202Z,29.73
2019-02-26T14:36:11.900Z,32.93
2019-02-26T14:38:43.207Z,31.40
2019-02-26T14:41:14.405Z,30.30
2019-02-26T14:43:45.859Z,32.37
2019-02-26T14:46:17.042Z,34.17
2019-02-26T14:48:49.028Z,31.63
2019-02-26T14:51:20.551Z,33.00
2019-02-26T14:53:51.991Z,31.63
2019-02-26T14:56:25.028Z,32.63
2019-02-26T14:58:56.020Z,32.57
2019-02-26T15:01:27.270Z,35.30
2019-02-26T15:03:58.747Z,34.47
2019-02-26T15:06:29.892Z,33.10
2019-02-26T15:09:01.088Z,36.30
2019-02-26T15:11:32.671Z,32.77
2019-02-26T15:14:04.567Z,33.87
2019-02-26T15:16:36.287Z,34.97
2019-02-26T15:19:07.724Z,32.53
2019-02-26T15:21:38.848Z,32.90
2019-02-26T15:24:10.295Z,33.27
2019-02-26T15:26:41.491Z,30.83
2019-02-26T15:29:12.659Z,29.83
2019-02-26T15:31:44.641Z,31.97
2019-02-26T15:34:15.785Z,32.83
2019-02-26T15:36:48.056Z,34.43
2019-02-26T15:39:19.304Z,30.63
2019-02-26T15:41:52.673Z,33.80
2019-02-26T15:44:26.026Z,32.70
2019-02-26T15:46:57.107Z,32.13
2019-02-26T15:49:28.264Z,33.40
2019-02-26T15:51:59.431Z,29.87
2019-02-26T15:54:30.889Z,34.40
2019-02-26T15:57:02.092Z,34.83
2019-02-26T15:59:35.263Z,67.63
2019-02-26T16:02:06.464Z,77.50
2019-02-26T16:04:38.942Z,89.47
2019-02-26T16:07:11.485Z,107.07
2019-02-26T16:09:42.609Z,1209.15
2019-02-26T16:12:14.031Z,353.33
2019-02-26T16:14:45.123Z,255.77
2019-02-26T16:17:18.570Z,285.63
2019-02-26T16:19:52.962Z,295.73
2019-02-26T16:22:24.970Z,298.27
2019-02-26T16:24:56.151Z,358.67
2019-02-26T16:27:28.222Z,357.50
2019-02-26T16:30:00.702Z,318.33
2019-02-26T16:32:31.948Z,309.77
2019-02-26T16:35:04.013Z,298.80
2019-02-26T16:37:35.780Z,1685.80
2019-02-26T16:40:08.119Z,1065.30
2019-02-26T16:42:39.209Z,1048.73
2019-02-26T16:45:15.030Z,139.13
2019-02-26T16:47:48.731Z,139.80
2019-02-26T16:50:22.827Z,165.25
2019-02-26T16:52:54.119Z,101.70
2019-02-26T16:55:25.395Z,83.27
2019-02-26T16:57:57.051Z,77.40
2019-02-26T17:00:28.740Z,55.17
2019-02-26T17:03:01.231Z,56.50
2019-02-26T17:05:32.826Z,48.93
2019-02-26T17:08:05.155Z,199.70
2019-02-26T17:10:39.115Z,901.52
2019-02-26T17:13:11.858Z,123.10
2019-02-26T17:15:43.897Z,112.50
2019-02-26T17:18:16.211Z,71.53
2019-02-26T17:20:47.565Z,72.90
2019-02-26T17:23:20.042Z,64.63
2019-02-26T17:25:51.173Z,603.30
2019-02-26T17:28:22.669Z,752.50
2019-02-26T17:30:57.418Z,732.83
2019-02-26T17:33:27.826Z,602.13
2019-02-26T17:35:59.549Z,562.90
2019-02-26T17:38:31.786Z,633.30
2019-02-26T17:41:02.917Z,595.37
2019-02-26T17:43:34.108Z,641.57
2019-02-26T17:46:07.857Z,590.03
2019-02-26T17:48:43.424Z,545.13
2019-02-26T17:51:18.780Z,474.93
2019-02-26T17:53:47.822Z,515.60
2019-02-26T17:56:19.326Z,493.53
2019-02-26T17:58:51.195Z,569.10
2019-02-26T18:01:22.765Z,505.00
2019-02-26T18:03:54.289Z,403.67
2019-02-26T18:06:25.902Z,458.83
2019-02-26T18:08:57.521Z,445.37
2019-02-26T18:11:29.065Z,469.10
2019-02-26T18:14:00.769Z,397.57
2019-02-26T18:16:34.404Z,432.67
2019-02-26T18:19:05.460Z,389.57
2019-02-26T18:21:37.124Z,371.37
2019-02-26T18:24:08.732Z,369.67
2019-02-26T18:26:40.210Z,354.73
2019-02-26T18:29:11.875Z,323.90
2019-02-26T18:31:43.434Z,344.37
2019-02-26T18:34:14.962Z,319.73
2019-02-26T18:36:46.703Z,331.47
2019-02-26T18:39:22.329Z,324.27
2019-02-26T18:41:53.271Z,329.13
2019-02-26T18:44:24.420Z,309.30
2019-02-26T18:46:55.785Z,295.87
2019-02-26T18:49:27.118Z,297.97
2019-02-26T18:51:58.616Z,280.63
2019-02-26T18:54:30.473Z,283.20
2019-02-26T18:57:01.909Z,289.57
2019-02-26T18:59:33.374Z,306.27
2019-02-26T19:02:04.983Z,298.93
2019-02-26T19:04:36.488Z,268.57
2019-02-26T19:07:22.127Z,284.30
2019-02-26T19:09:54.116Z,282.83
2019-02-26T19:12:33.330Z,262.50
2019-02-26T19:15:14.807Z,264.37
2019-02-26T19:17:50.470Z,264.63
2019-02-26T19:20:25.434Z,248.83
2019-02-26T19:22:58.753Z,252.33
2019-02-26T19:25:31.614Z,238.20
2019-02-26T19:28:03.203Z,236.73
2019-02-26T19:30:36.794Z,236.87
2019-02-26T19:33:07.762Z,233.40
2019-02-26T19:35:42.129Z,233.87
2019-02-26T19:38:13.890Z,234.00
2019-02-26T19:40:45.547Z,232.13
2019-02-26T19:43:17.815Z,223.27
2019-02-26T19:45:50.515Z,211.93
2019-02-26T19:48:33.868Z,215.20
2019-02-26T19:51:04.332Z,197.10
2019-02-26T19:53:36.001Z,187.03
2019-02-26T19:56:07.581Z,181.50
2019-02-26T19:58:41.011Z,208.30
2019-02-26T20:01:12.481Z,211.63
2019-02-26T20:03:43.932Z,187.73
2019-02-26T20:06:15.447Z,188.70
2019-02-26T20:08:49.588Z,186.47
2019-02-26T20:11:22.846Z,171.50
2019-02-26T20:14:04.497Z,160.00
2019-02-26T20:16:30.625Z,150.13
2019-02-26T20:19:04.459Z,123.67
2019-02-26T20:21:36.075Z,109.00
2019-02-26T20:24:08.248Z,107.60
2019-02-26T20:26:47.658Z,99.97
2019-02-26T20:29:19.371Z,100.10
2019-02-26T20:31:55.401Z,102.17
2019-02-26T20:34:28.813Z,92.67
2019-02-26T20:37:01.930Z,86.10
2019-02-26T20:39:34.116Z,91.00
2019-02-26T20:42:06.513Z,89.23
2019-02-26T20:47:55.882Z,68.50
2019-02-26T20:50:31.215Z,84.30
2019-02-26T20:53:16.959Z,85.80
2019-02-26T20:55:52.705Z,70.37
2019-02-26T20:58:25.512Z,72.23
2019-02-26T21:00:59.317Z,73.20
2019-02-26T21:03:31.079Z,89.70
2019-02-26T21:06:02.877Z,111.83
2019-02-26T21:08:34.428Z,93.57
2019-02-26T21:11:06.044Z,78.83
2019-02-26T21:13:38.123Z,66.67
2019-02-26T21:16:11.531Z,75.07
2019-02-26T21:18:44.738Z,67.93
2019-02-26T21:21:16.782Z,60.93
2019-02-26T21:23:48.557Z,74.67
2019-02-26T21:26:20.356Z,56.87
2019-02-26T21:28:52.029Z,59.50
2019-02-26T21:31:24.218Z,61.00
2019-02-26T21:33:56.322Z,55.23
2019-02-26T21:36:28.448Z,52.20
2019-02-26T21:39:00.153Z,54.40
2019-02-26T21:41:34.239Z,58.00
2019-02-26T21:44:08.780Z,53.47
2019-02-26T21:46:39.073Z,49.73
2019-02-26T21:49:10.799Z,52.90
2019-02-26T21:51:42.340Z,52.70
2019-02-26T21:54:14.039Z,50.17
2019-02-26T21:56:48.661Z,47.93
2019-02-26T21:59:19.122Z,47.13
2019-02-26T22:01:50.874Z,51.53
2019-02-26T22:04:22.852Z,48.93
2019-02-26T22:06:54.797Z,44.60
2019-02-26T22:09:29.908Z,45.37
2019-02-26T22:11:59.783Z,45.57
2019-02-26T22:14:36.863Z,46.90
2019-02-26T22:17:07.714Z,48.10
2019-02-26T22:19:40.219Z,42.60
2019-02-26T22:22:12.547Z,45.70
2019-02-26T22:24:46.152Z,47.33
2019-02-26T22:27:18.002Z,44.43
2019-02-26T22:29:49.790Z,49.90
2019-02-26T22:32:21.621Z,39.23
2019-02-26T22:34:53.564Z,40.53
2019-02-26T22:37:26.088Z,42.90
2019-02-26T22:39:57.650Z,42.53
2019-02-26T22:42:29.280Z,42.93
2019-02-26T22:45:03.221Z,38.53
2019-02-26T22:47:40.246Z,42.90
2019-02-26T22:50:10.510Z,42.77
2019-02-26T22:52:42.463Z,43.93
2019-02-26T22:55:16.503Z,43.43
2019-02-26T22:57:47.537Z,42.57
2019-02-26T23:01:11.814Z,46.80
2019-02-26T23:03:45.916Z,45.40
2019-02-26T23:06:17.285Z,38.83
2019-02-26T23:08:49.225Z,40.43
2019-02-26T23:11:21.107Z,42.57
2019-02-26T23:13:52.916Z,45.10
2019-02-26T23:16:24.557Z,43.83
2019-02-26T23:18:56.341Z,44.13
2019-02-26T23:21:28.535Z,45.50
2019-02-26T23:24:00.111Z,44.80
2019-02-26T23:26:31.763Z,46.07
2019-02-26T23:29:03.422Z,43.50
2019-02-26T23:31:35.254Z,46.50
2019-02-26T23:34:07.133Z,43.83
2019-02-26T23:36:38.796Z,43.80
2019-02-26T23:39:14.844Z,44.97
2019-02-26T23:41:46.572Z,43.23
2019-02-26T23:44:18.675Z,44.30
2019-02-26T23:46:50.318Z,45.53
2019-02-26T23:49:22.073Z,43.87
2019-02-26T23:51:54.579Z,42.60
2019-02-26T23:54:26.283Z,46.60
2019-02-26T23:56:57.629Z,39.93
2019-02-26T23:59:28.907Z,45.00
